Time;durP1;ratioP1;P1;durP2;ratioP2;P2;SDS_P1;SDS_P2;PMS_P1;PMS_P2;Temp;Humidity;BMP_temperature;BMP_pressure;BME280_temperature;BME280_humidity;BME280_pressure;Samples;Min_cycle;Max_cycle;Signal;HPM_P1;HPM_P2
2022/03/28 00:01:52;;;;;;;;;32.50;30.00;;;;;17.42;31.79;101779.28;4770466;29;45582;-79
2022/03/28 00:04:18;;;;;;;;;37.50;31.00;;;;;17.38;32.27;101775.22;4769825;29;45553;-86
2022/03/28 00:06:44;;;;;;;;;35.50;30.50;;;;;17.35;31.88;101776.28;4770320;29;45951;-82
2022/03/28 00:09:09;;;;;;;;;39.50;31.25;;;;;17.32;32.50;101770.41;4753104;29;45823;-89
2022/03/28 00:11:35;;;;;;;;;38.50;32.25;;;;;17.29;32.58;101768.84;4770157;29;45675;-85
2022/03/28 00:14:01;;;;;;;;;36.00;31.25;;;;;17.27;32.63;101773.44;4771756;29;46429;-87
2022/03/28 00:16:26;;;;;;;;;34.25;30.25;;;;;17.24;32.89;101772.81;4771525;29;46431;-86
2022/03/28 00:18:52;;;;;;;;;35.75;29.50;;;;;17.20;33.42;101766.94;4772210;29;45526;-84
2022/03/28 00:21:17;;;;;;;;;33.25;30.75;;;;;17.15;33.55;101755.88;4771740;29;45678;-84
2022/03/28 00:23:43;;;;;;;;;33.00;29.75;;;;;17.14;34.08;101762.97;4769628;29;45733;-89
2022/03/28 00:26:09;;;;;;;;;37.75;31.75;;;;;17.11;34.00;101763.19;4769351;29;46557;-85
2022/03/28 00:31:56;;;;;;;;;34.75;27.75;;;;;17.06;34.19;101748.63;4768698;29;45714;-84
2022/03/28 00:34:23;;;;;;;;;38.25;31.75;;;;;17.03;34.87;101764.78;4752629;29;47621;-83
2022/03/28 00:36:52;;;;;;;;;32.75;29.25;;;;;17.01;34.64;101751.66;4772526;29;46139;-81
2022/03/28 00:39:19;;;;;;;;;36.50;31.50;;;;;16.98;35.01;101748.44;4759284;29;45879;-81
2022/03/28 00:41:46;;;;;;;;;22.75;18.50;;;;;16.94;35.40;101741.69;4777178;29;45722;-85
2022/03/28 00:44:12;;;;;;;;;39.00;29.75;;;;;16.92;35.45;101744.47;4775767;29;46600;-84
2022/03/28 00:46:37;;;;;;;;;34.75;30.25;;;;;16.89;36.10;101744.72;4771660;29;45577;-86
2022/03/28 00:49:05;;;;;;;;;29.75;27.75;;;;;16.84;35.41;101744.25;4769813;29;45597;-89
2022/03/28 00:51:31;;;;;;;;;37.00;31.75;;;;;16.83;36.04;101742.56;4770465;29;45739;-91
2022/03/28 00:53:57;;;;;;;;;31.75;28.00;;;;;16.81;35.79;101746.28;4769994;29;46487;-89
2022/03/28 00:56:24;;;;;;;;;34.50;30.00;;;;;16.78;36.11;101742.91;4769694;29;45911;-89
2022/03/28 01:02:11;;;;;;;;;36.75;32.00;;;;;16.72;36.49;101738.09;4770219;29;45729;-83
2022/03/28 01:04:37;;;;;;;;;30.75;26.75;;;;;16.70;36.39;101737.38;4770065;29;46568;-88
2022/03/28 01:07:07;;;;;;;;;30.00;28.00;;;;;16.65;36.74;101736.06;4770166;29;46132;-83
2022/03/28 01:09:33;;;;;;;;;37.75;28.50;;;;;16.63;36.85;101733.50;4754771;29;45821;-85
2022/03/28 01:12:00;;;;;;;;;32.75;30.75;;;;;16.66;36.95;101729.81;4771315;29;45765;-84
2022/03/28 01:14:27;;;;;;;;;32.25;29.75;;;;;16.64;36.92;101729.91;4757419;29;47608;-84
2022/03/28 01:19:36;;;;;;;;;31.25;27.50;;;;;16.58;37.72;101716.28;4779714;29;45534;-86
2022/03/28 01:22:02;;;;;;;;;38.75;28.75;;;;;16.57;38.08;101717.28;4764227;29;45558;-80
2022/03/28 01:24:28;;;;;;;;;32.50;29.75;;;;;16.53;38.07;101723.75;4780064;29;46356;-86
2022/03/28 01:26:55;;;;;;;;;39.25;31.00;;;;;16.49;38.17;101717.84;4762865;29;46631;-84
2022/03/28 01:29:20;;;;;;;;;31.50;28.50;;;;;16.51;38.32;101717.75;4779731;29;45652;-85
2022/03/28 01:31:46;;;;;;;;;35.00;29.25;;;;;16.46;38.50;101710.19;4777722;29;45580;-87
2022/03/28 01:34:17;;;;;;;;;33.00;30.00;;;;;16.47;38.54;101711.00;4772626;29;45855;-84
2022/03/28 01:36:47;;;;;;;;;37.75;30.50;;;;;16.43;38.53;101699.81;4772707;29;46632;-89
2022/03/28 01:39:13;;;;;;;;;38.75;32.00;;;;;16.42;38.89;101711.34;4774459;29;45733;-87
2022/03/28 01:41:38;;;;;;;;;32.25;30.50;;;;;16.37;38.51;101701.13;4774938;29;45728;-86
2022/03/28 01:47:26;;;;;;;;;33.00;28.75;;;;;16.29;37.86;101700.06;4771882;29;46158;-81
2022/03/28 01:49:52;;;;;;;;;30.25;26.00;;;;;16.26;37.94;101698.47;4773535;29;45690;-82
2022/03/28 01:52:18;;;;;;;;;37.50;32.25;;;;;16.19;38.07;101691.16;4774974;29;45526;-83
2022/03/28 01:54:44;;;;;;;;;32.50;31.25;;;;;16.22;39.04;101698.84;4773664;29;45727;-83
2022/03/28 01:57:10;;;;;;;;;36.75;33.25;;;;;16.19;39.01;101693.81;4754916;29;47077;-83
2022/03/28 01:59:36;;;;;;;;;49.00;35.50;;;;;16.16;39.16;101689.56;4774130;29;45567;-84
2022/03/28 02:02:01;;;;;;;;;39.50;33.75;;;;;16.15;39.13;101689.69;4763427;29;45661;-80
2022/03/28 02:04:26;;;;;;;;;41.25;33.75;;;;;16.14;39.88;101690.66;4764214;29;47917;-79
2022/03/28 02:06:52;;;;;;;;;46.00;37.75;;;;;16.12;40.14;101692.59;4761769;29;46716;-82
2022/03/28 02:09:17;;;;;;;;;41.00;35.25;;;;;16.10;40.03;101695.34;4773171;29;45547;-85
2022/03/28 02:11:43;;;;;;;;;38.25;35.00;;;;;16.09;40.66;101688.34;4771432;29;45547;-85
2022/03/28 02:17:31;;;;;;;;;44.50;36.00;;;;;16.01;40.77;101689.91;4770283;29;45917;-83
2022/03/28 02:19:57;;;;;;;;;48.75;36.50;;;;;15.98;40.70;101687.53;4770702;29;45692;-85
2022/03/28 02:22:23;;;;;;;;;49.25;38.25;;;;;15.96;41.32;101692.91;4770801;29;45613;-87
2022/03/28 02:24:48;;;;;;;;;40.50;35.50;;;;;15.89;41.71;101684.59;4771092;29;46625;-84
2022/03/28 02:27:16;;;;;;;;;44.75;35.75;;;;;15.90;42.05;101690.75;4753629;29;46545;-82
2022/03/28 02:29:42;;;;;;;;;41.25;34.00;;;;;15.85;42.36;101679.69;4772315;29;45775;-85
2022/03/28 02:32:08;;;;;;;;;37.50;33.50;;;;;15.83;42.50;101685.06;4771573;29;45627;-85
2022/03/28 02:34:34;;;;;;;;;44.75;35.25;;;;;15.78;42.49;101689.00;4772158;29;45672;-86
2022/03/28 02:36:59;;;;;;;;;39.75;35.00;;;;;15.76;43.04;101685.66;4776372;29;46057;-83
2022/03/28 02:39:25;;;;;;;;;42.25;36.75;;;;;15.70;42.76;101681.69;4777017;29;45627;-80
2022/03/28 02:41:52;;;;;;;;;40.50;34.75;;;;;15.69;42.63;101682.63;4776279;29;45527;-80
2022/03/28 02:47:39;;;;;;;;;48.00;38.00;;;;;15.61;43.55;101668.31;4770047;29;45862;-82
2022/03/28 02:50:06;;;;;;;;;47.75;36.75;;;;;15.59;43.35;101664.94;4770697;29;45646;-85
2022/03/28 02:52:31;;;;;;;;;49.00;37.50;;;;;15.56;43.55;101657.25;4754136;29;45554;-84
2022/03/28 02:54:57;;;;;;;;;42.25;36.75;;;;;15.53;43.41;101661.81;4753673;29;47793;-85
2022/03/28 02:57:22;;;;;;;;;43.00;34.50;;;;;15.49;43.89;101656.84;4771632;29;45624;-86
2022/03/28 02:59:47;;;;;;;;;40.50;36.00;;;;;15.45;44.37;101653.56;4771594;29;45621;-87
2022/03/28 03:02:13;;;;;;;;;50.00;38.50;;;;;15.45;44.19;101650.94;4771047;29;45453;-86
2022/03/28 03:04:39;;;;;;;;;45.75;38.75;;;;;15.43;44.91;101658.16;4769930;29;46217;-84
2022/03/28 03:07:04;;;;;;;;;48.75;35.00;;;;;15.38;44.34;101646.25;4769733;29;45804;-84
2022/03/28 03:09:30;;;;;;;;;44.25;35.75;;;;;15.37;44.55;101650.69;4769995;29;45606;-84
2022/03/28 03:11:56;;;;;;;;;48.00;37.75;;;;;15.33;44.40;101643.09;4770228;29;45680;-86
2022/03/28 03:17:43;;;;;;;;;42.50;36.00;;;;;15.30;44.68;101630.09;4770122;29;45505;-86
2022/03/28 03:20:09;;;;;;;;;49.25;36.25;;;;;15.29;44.26;101637.19;4770485;29;45631;-87
2022/03/28 03:22:35;;;;;;;;;46.75;38.00;;;;;15.26;44.39;101632.16;4770799;29;45851;-85
2022/03/28 03:25:00;;;;;;;;;39.25;34.75;;;;;15.27;44.85;101627.72;4771619;29;46633;-84
2022/03/28 03:27:25;;;;;;;;;41.75;35.25;;;;;15.24;45.50;101631.41;4772335;29;46469;-85
2022/03/28 03:33:12;;;;;;;;;48.50;38.25;;;;;15.22;45.54;101637.78;4770910;29;45945;-86
2022/03/28 03:35:38;;;;;;;;;47.75;37.50;;;;;15.18;45.83;101625.72;4771487;29;46742;-85
2022/03/28 03:38:03;;;;;;;;;45.50;37.75;;;;;15.19;45.37;101633.56;4753656;29;48549;-83
2022/03/28 03:40:29;;;;;;;;;50.75;38.25;;;;;15.18;45.97;101634.50;4770451;29;45551;-87
2022/03/28 03:42:54;;;;;;;;;52.00;38.25;;;;;15.18;45.91;101631.00;4754165;29;45803;-84
2022/03/28 03:45:20;;;;;;;;;41.50;34.50;;;;;15.16;46.33;101640.88;4770856;29;45668;-82
2022/03/28 03:47:45;;;;;;;;;50.00;37.75;;;;;15.10;46.32;101624.53;4769875;29;45574;-86
2022/03/28 03:50:11;;;;;;;;;43.00;36.50;;;;;15.12;46.52;101629.66;4769635;29;45621;-86
2022/03/28 03:52:37;;;;;;;;;54.50;42.50;;;;;15.10;46.72;101632.44;4769716;29;45532;-84
2022/03/28 03:55:04;;;;;;;;;48.75;39.25;;;;;15.05;47.37;101625.81;4769474;29;45591;-87
2022/03/28 03:57:29;;;;;;;;;52.00;42.00;;;;;15.04;47.26;101626.75;4769601;29;46161;-87
2022/03/28 04:03:17;;;;;;;;;51.00;42.25;;;;;14.99;47.50;101628.91;4769069;29;45659;-84
2022/03/28 04:05:43;;;;;;;;;48.50;39.50;;;;;14.96;47.90;101626.47;4768974;29;46270;-85
2022/03/28 04:08:08;;;;;;;;;52.75;41.75;;;;;14.96;47.79;101623.84;4769043;29;46029;-84
2022/03/28 04:10:35;;;;;;;;;54.75;41.25;;;;;14.92;48.33;101617.94;4769097;29;45499;-81
2022/03/28 04:13:02;;;;;;;;;52.00;40.25;;;;;14.92;48.65;101625.88;4769419;29;45718;-90
2022/03/28 04:15:27;;;;;;;;;52.75;41.00;;;;;14.89;48.59;101625.25;4772541;29;46237;-84
2022/03/28 04:17:53;;;;;;;;;55.50;41.50;;;;;14.86;48.32;101628.94;4754305;29;46838;-87
2022/03/28 04:20:19;;;;;;;;;51.50;40.00;;;;;14.82;48.37;101624.00;4770371;29;45655;-86
2022/03/28 04:22:48;;;;;;;;;54.00;41.75;;;;;14.82;48.88;101619.56;4770980;29;45873;-88
2022/03/28 04:25:15;;;;;;;;;53.00;42.50;;;;;14.81;48.20;101628.44;4770694;29;46635;-85
2022/03/28 04:27:41;;;;;;;;;45.75;37.50;;;;;14.78;48.16;101631.31;4771132;29;46279;-87
2022/03/28 04:33:28;;;;;;;;;50.00;40.00;;;;;14.70;48.63;101625.72;4770655;29;45660;-87
2022/03/28 04:35:54;;;;;;;;;51.75;41.75;;;;;14.68;48.40;101627.66;4771154;29;45854;-82
2022/03/28 04:38:19;;;;;;;;;51.00;38.25;;;;;14.67;48.59;101625.97;4756835;29;47368;-82
2022/03/28 04:40:45;;;;;;;;;49.00;39.75;;;;;14.66;48.67;101630.41;4775803;29;45562;-82
2022/03/28 04:43:10;;;;;;;;;50.75;39.00;;;;;14.65;48.86;101628.69;4778341;29;45525;-83
2022/03/28 04:45:36;;;;;;;;;56.25;43.25;;;;;14.64;48.70;101623.53;4756744;29;48825;-85
2022/03/28 04:48:02;;;;;;;;;57.25;43.50;;;;;14.65;48.61;101623.44;4774420;29;46141;-85
2022/03/28 04:50:28;;;;;;;;;53.75;42.00;;;;;14.62;48.74;101614.91;4777792;29;45530;-80
2022/03/28 04:52:54;;;;;;;;;54.50;42.25;;;;;14.62;49.16;101621.03;4779725;29;45571;-82
2022/03/28 04:55:20;;;;;;;;;50.75;41.50;;;;;14.64;49.13;101621.72;4779166;29;45668;-80
2022/03/28 04:57:46;;;;;;;;;58.25;43.50;;;;;14.65;48.83;101620.78;4773728;29;46236;-85
2022/03/28 05:03:33;;;;;;;;;54.00;42.00;;;;;14.65;49.09;101614.66;4772964;29;45554;-86
2022/03/28 05:05:59;;;;;;;;;52.25;40.00;;;;;14.65;49.07;101615.50;4773319;29;46026;-87
2022/03/28 05:08:24;;;;;;;;;55.00;41.75;;;;;14.64;49.13;101602.44;4773909;29;46131;-88
2022/03/28 05:10:50;;;;;;;;;53.25;39.50;;;;;14.66;49.10;101606.66;4773661;29;45613;-81
2022/03/28 05:13:15;;;;;;;;;50.25;38.75;;;;;14.66;49.58;101605.81;4772052;29;45652;-85
2022/03/28 05:15:41;;;;;;;;;55.00;39.00;;;;;14.67;49.79;101613.63;4772413;29;46485;-87
2022/03/28 05:18:06;;;;;;;;;51.75;39.75;;;;;14.66;49.51;101604.00;4771598;29;46189;-85
2022/03/28 05:20:32;;;;;;;;;51.75;39.00;;;;;14.67;49.65;101600.44;4772682;29;45633;-84
2022/03/28 05:22:57;;;;;;;;;52.00;40.25;;;;;14.67;49.82;101602.22;4772759;29;45810;-84
2022/03/28 05:25:23;;;;;;;;;52.50;40.75;;;;;14.67;49.97;101610.13;4773498;29;45592;-83
2022/03/28 05:27:49;;;;;;;;;54.75;42.50;;;;;14.65;49.87;101612.88;4774597;29;45518;-84
2022/03/28 05:33:36;;;;;;;;;48.75;42.25;;;;;14.63;50.84;101606.00;4771972;29;45611;-85
2022/03/28 05:36:02;;;;;;;;;48.25;41.50;;;;;14.62;50.35;101605.19;4756184;29;48495;-86
2022/03/28 05:38:28;;;;;;;;;52.00;41.00;;;;;14.62;50.34;101607.00;4773798;29;46302;-86
2022/03/28 05:40:56;;;;;;;;;52.75;41.75;;;;;14.59;50.80;101607.19;4775687;29;45736;-87
2022/03/28 05:43:25;;;;;;;;;56.50;40.75;;;;;14.60;50.84;101608.88;4773529;29;45658;-87
2022/03/28 05:45:54;;;;;;;;;50.25;41.25;;;;;14.57;50.71;101601.22;4774035;29;46571;-85
2022/03/28 05:48:20;;;;;;;;;51.00;41.50;;;;;14.58;50.49;101606.34;4775153;29;45606;-86
2022/03/28 05:50:46;;;;;;;;;50.75;39.50;;;;;14.59;50.94;101596.63;4758584;29;45702;-88
2022/03/28 05:53:13;;;;;;;;;55.50;41.75;;;;;14.58;50.72;101602.88;4774520;29;45431;-88
2022/03/28 05:55:43;;;;;;;;;50.75;40.75;;;;;14.59;50.70;101608.03;4773974;29;46207;-88
2022/03/28 05:58:09;;;;;;;;;52.25;42.25;;;;;14.60;51.00;101606.25;4777660;29;45867;-79
2022/03/28 06:03:56;;;;;;;;;56.25;43.75;;;;;14.61;50.96;101602.66;4779378;29;45546;-84
2022/03/28 06:06:22;;;;;;;;;52.75;41.75;;;;;14.57;51.13;101599.41;4773650;29;45570;-85
2022/03/28 06:08:47;;;;;;;;;53.25;44.75;;;;;14.59;51.50;101597.50;4774161;29;45741;-81
2022/03/28 06:11:13;;;;;;;;;53.25;43.25;;;;;14.60;51.50;101601.81;4772938;29;45599;-83
2022/03/28 06:13:38;;;;;;;;;56.50;46.25;;;;;14.61;51.89;101602.66;4772143;29;45683;-84
2022/03/28 06:16:04;;;;;;;;;56.25;45.25;;;;;14.58;51.83;101593.16;4771742;29;46288;-84
2022/03/28 06:18:30;;;;;;;;;55.50;42.25;;;;;14.56;50.89;101587.19;4771934;29;45762;-86
2022/03/28 06:20:55;;;;;;;;;54.50;43.75;;;;;14.59;51.74;101588.72;4776048;29;45622;-82
2022/03/28 06:23:21;;;;;;;;;51.50;41.25;;;;;14.57;51.64;101591.50;4782978;29;45436;-85
2022/03/28 06:25:47;;;;;;;;;62.00;44.50;;;;;14.60;51.98;101593.91;4779582;29;46206;-84
2022/03/28 06:28:13;;;;;;;;;55.50;44.00;;;;;14.62;51.40;101591.16;4777601;29;46052;-83
2022/03/28 06:34:03;;;;;;;;;51.50;38.75;;;;;14.62;51.47;101599.91;4770997;29;45635;-82
2022/03/28 06:36:30;;;;;;;;;53.75;43.00;;;;;14.62;51.79;101594.66;4755330;29;48380;-82
2022/03/28 06:38:56;;;;;;;;;54.25;43.25;;;;;14.64;52.05;101605.06;4771574;29;46282;-83
2022/03/28 06:41:22;;;;;;;;;55.25;43.75;;;;;14.65;51.79;101596.22;4771452;29;45721;-88
2022/03/28 06:43:48;;;;;;;;;61.75;45.00;;;;;14.64;51.83;101592.72;4770938;29;45793;-78
2022/03/28 06:46:14;;;;;;;;;54.50;42.00;;;;;14.63;51.83;101596.31;4769758;29;45722;-79
2022/03/28 06:48:40;;;;;;;;;59.00;45.00;;;;;14.65;52.18;101593.56;4769683;29;46147;-76
2022/03/28 06:51:07;;;;;;;;;52.25;40.00;;;;;14.64;52.05;101589.25;4769732;29;45507;-78
2022/03/28 06:53:32;;;;;;;;;53.00;42.50;;;;;14.64;52.01;101589.25;4770040;29;45719;-78
2022/03/28 06:55:58;;;;;;;;;57.75;43.00;;;;;14.65;52.28;101583.88;4753303;29;46570;-78
2022/03/28 06:58:24;;;;;;;;;51.75;41.75;;;;;14.68;52.37;101582.81;4769564;29;45554;-79
2022/03/28 07:04:11;;;;;;;;;61.25;45.50;;;;;14.70;51.45;101583.53;4769572;29;45660;-77
2022/03/28 07:06:40;;;;;;;;;53.50;42.25;;;;;14.73;51.51;101579.84;4770736;29;46626;-77
2022/03/28 07:09:05;;;;;;;;;54.75;43.00;;;;;14.75;51.92;101588.47;4769473;29;46192;-78
2022/03/28 07:11:34;;;;;;;;;55.75;44.50;;;;;14.77;51.95;101579.50;4769477;29;45637;-79
2022/03/28 07:14:00;;;;;;;;;58.25;44.75;;;;;14.78;51.92;101583.81;4769357;29;45716;-79
2022/03/28 07:16:25;;;;;;;;;55.25;44.25;;;;;14.81;51.57;101578.31;4769421;29;46426;-81
2022/03/28 07:18:51;;;;;;;;;59.75;44.75;;;;;14.79;52.04;101574.94;4769375;29;45620;-80
2022/03/28 07:21:16;;;;;;;;;58.75;44.75;;;;;14.84;51.94;101578.09;4769413;29;45655;-80
2022/03/28 07:23:43;;;;;;;;;56.00;44.50;;;;;14.85;51.82;101571.84;4738416;29;45609;-80
2022/03/28 07:26:09;;;;;;;;;58.00;46.75;;;;;14.89;51.83;101580.41;4769389;29;45657;-80
2022/03/28 07:28:39;;;;;;;;;56.50;44.50;;;;;14.93;51.72;101577.41;4768867;29;46233;-80
2022/03/28 07:34:35;;;;;;;;;57.25;43.50;;;;;15.02;51.64;101579.38;4768605;29;45535;-80
2022/03/28 07:37:05;;;;;;;;;50.75;40.25;;;;;15.05;51.35;101576.50;4769075;29;45632;-80
2022/03/28 07:39:33;;;;;;;;;58.00;45.00;;;;;15.10;51.20;101573.53;4769070;29;46186;-80
2022/03/28 07:41:58;;;;;;;;;55.00;42.25;;;;;15.12;50.91;101558.41;4769110;29;45742;-81
2022/03/28 07:44:23;;;;;;;;;55.50;43.50;;;;;15.21;50.90;101567.44;4769344;29;45526;-81
2022/03/28 07:46:49;;;;;;;;;59.50;46.50;;;;;15.22;51.10;101561.22;4769036;29;46474;-79
2022/03/28 07:49:18;;;;;;;;;55.75;44.50;;;;;15.31;50.75;101569.28;4752832;29;45716;-81
2022/03/28 07:51:45;;;;;;;;;54.50;43.25;;;;;15.36;50.98;101561.00;4752483;29;45816;-80
2022/03/28 07:54:11;;;;;;;;;60.00;45.00;;;;;15.39;50.83;101564.25;4769232;29;45614;-81
2022/03/28 07:56:37;;;;;;;;;57.75;45.00;;;;;15.44;50.57;101564.72;4768910;29;45733;-81
2022/03/28 07:59:02;;;;;;;;;58.25;45.00;;;;;15.48;50.62;101573.28;4768942;29;46085;-82
2022/03/28 08:04:50;;;;;;;;;58.25;45.75;;;;;15.55;50.66;101563.13;4768991;29;45718;-81
2022/03/28 08:07:15;;;;;;;;;55.50;46.00;;;;;15.59;50.64;101562.78;4768691;29;45663;-81
2022/03/28 08:09:41;;;;;;;;;54.25;44.50;;;;;15.63;50.66;101566.00;4768860;29;45594;-81
2022/03/28 08:12:08;;;;;;;;;64.50;48.00;;;;;15.63;50.88;101552.81;4768844;29;45730;-81
2022/03/28 08:14:33;;;;;;;;;61.00;48.00;;;;;15.70;50.62;101562.78;4768807;29;45499;-81
2022/03/28 08:16:59;;;;;;;;;61.00;45.75;;;;;15.71;50.67;101561.81;4768611;29;46588;-81
2022/03/28 08:19:25;;;;;;;;;60.00;46.50;;;;;15.71;50.42;101551.22;4768701;29;45763;-81
2022/03/28 08:21:51;;;;;;;;;62.25;49.25;;;;;15.73;50.66;101554.63;4768666;29;45582;-82
2022/03/28 08:24:17;;;;;;;;;60.25;46.25;;;;;15.80;50.43;101562.91;4768773;29;45610;-81
2022/03/28 08:26:43;;;;;;;;;58.75;45.25;;;;;15.83;50.31;101571.44;4768004;29;46315;-80
2022/03/28 08:29:09;;;;;;;;;63.00;48.25;;;;;15.85;50.41;101551.03;4752019;29;47058;-80
2022/03/28 08:34:56;;;;;;;;;57.75;46.00;;;;;15.95;49.98;101553.78;4767625;29;45627;-81
2022/03/28 08:37:24;;;;;;;;;56.75;45.50;;;;;15.98;50.07;101550.06;4768453;29;45777;-80
2022/03/28 08:39:54;;;;;;;;;59.00;45.25;;;;;16.05;49.85;101545.97;4768313;29;45899;-80
2022/03/28 08:42:21;;;;;;;;;62.25;46.50;;;;;16.11;49.70;101546.31;4768537;29;45559;-81
2022/03/28 08:44:47;;;;;;;;;59.50;47.25;;;;;16.16;50.05;101541.50;4768444;29;45617;-80
2022/03/28 08:47:17;;;;;;;;;59.75;48.25;;;;;16.22;49.86;101546.31;4751694;29;46405;-79
2022/03/28 08:49:43;;;;;;;;;57.75;46.25;;;;;16.21;49.60;101528.75;4768238;29;46298;-78
2022/03/28 08:52:08;;;;;;;;;65.00;47.50;;;;;16.29;49.76;101528.16;4768150;29;45581;-80
2022/03/28 08:54:34;;;;;;;;;59.00;46.00;;;;;16.37;49.46;101546.88;4752069;29;45594;-81
2022/03/28 08:57:00;;;;;;;;;60.00;48.00;;;;;16.42;49.22;101547.34;4751397;29;47506;-80
2022/03/28 08:59:26;;;;;;;;;59.50;47.25;;;;;16.44;48.86;101534.84;4767920;29;46235;-80
2022/03/28 09:05:15;;;;;;;;;60.25;47.25;;;;;16.54;48.64;101535.78;4768152;29;45624;-80
2022/03/28 09:07:42;;;;;;;;;60.25;47.25;;;;;16.57;48.47;101534.72;4768085;29;46265;-80
2022/03/28 09:10:13;;;;;;;;;61.00;47.50;;;;;16.62;48.34;101538.69;4768030;29;46039;-81
2022/03/28 09:12:58;;;;;;;;;59.50;47.75;;;;;16.67;48.38;101540.97;4767903;29;46075;-79
2022/03/28 09:15:25;;;;;;;;;59.50;47.00;;;;;16.71;48.38;101535.28;4767959;29;45776;-80
2022/03/28 09:17:57;;;;;;;;;65.50;48.75;;;;;16.73;48.15;101532.53;4767736;29;45882;-80
2022/03/28 09:20:24;;;;;;;;;62.75;49.00;;;;;16.78;47.98;101527.69;4767893;29;45980;-80
2022/03/28 09:22:50;;;;;;;;;61.25;46.75;;;;;16.86;47.80;101540.28;4767991;29;45494;-80
2022/03/28 09:25:19;;;;;;;;;64.25;49.25;;;;;16.91;47.78;101535.44;4768104;29;45820;-81
2022/03/28 09:27:45;;;;;;;;;58.75;46.00;;;;;16.95;47.62;101528.94;4767771;29;46419;-80
2022/03/28 09:30:14;;;;;;;;;63.25;50.00;;;;;16.97;47.39;101527.84;4767633;29;46236;-79
2022/03/28 09:32:48;;;;;;;;;63.75;49.50;;;;;17.04;47.20;101529.00;4767748;29;45526;-81
2022/03/28 09:35:19;;;;;;;;;60.75;47.75;;;;;17.09;47.20;101526.81;4767769;29;45557;-81
2022/03/28 09:37:48;;;;;;;;;64.75;49.00;;;;;17.16;46.97;101529.81;4770250;29;45747;-81
2022/03/28 09:40:26;;;;;;;;;63.25;48.00;;;;;17.19;46.78;101525.06;4770607;29;46477;-81
2022/03/28 09:42:51;;;;;;;;;62.00;48.00;;;;;17.25;46.57;101528.19;4770727;29;46010;-81
2022/03/28 09:45:23;;;;;;;;;61.50;47.50;;;;;17.29;46.69;101527.78;4770994;29;45654;-80
2022/03/28 09:48:06;;;;;;;;;61.50;49.00;;;;;17.36;46.35;101509.56;4770934;29;46539;-81
2022/03/28 09:50:43;;;;;;;;;61.50;48.50;;;;;17.40;46.14;101511.81;4754222;29;47138;-80
2022/03/28 09:53:15;;;;;;;;;65.25;48.50;;;;;17.45;46.35;101514.91;4770632;29;45875;-80
2022/03/28 09:55:56;;;;;;;;;60.00;48.00;;;;;17.52;46.00;101507.28;4754180;29;45967;-81
2022/03/28 09:58:47;;;;;;;;;59.50;46.00;;;;;17.61;46.00;101507.34;4770531;29;45614;-80
2022/03/28 10:01:21;;;;;;;;;58.00;46.00;;;;;17.70;45.55;101511.03;4766616;29;46041;-80
2022/03/28 10:03:48;;;;;;;;;58.75;45.25;;;;;17.78;45.31;101505.06;4770389;29;45912;-80
2022/03/28 10:06:15;;;;;;;;;58.00;45.75;;;;;17.87;45.36;101501.59;4770803;29;45497;-80
2022/03/28 10:08:41;;;;;;;;;59.50;46.00;;;;;17.92;45.03;101494.91;4770370;29;46816;-84
2022/03/28 10:11:08;;;;;;;;;64.00;48.00;;;;;18.04;44.78;101495.66;4753881;29;48463;-83
2022/03/28 10:13:34;;;;;;;;;59.00;45.50;;;;;18.11;44.27;101494.16;4770367;29;45968;-83
2022/03/28 10:16:00;;;;;;;;;60.50;47.25;;;;;18.19;44.19;101485.53;4754338;29;45978;-83
2022/03/28 10:18:38;;;;;;;;;60.50;48.25;;;;;18.27;44.22;101483.00;4753752;29;46910;-82
2022/03/28 10:21:06;;;;;;;;;63.75;47.00;;;;;18.36;43.64;101485.66;4770050;29;46315;-82
2022/03/28 10:23:41;;;;;;;;;59.25;46.00;;;;;18.42;44.15;101485.13;4770282;29;45556;-83
2022/03/28 10:26:08;;;;;;;;;53.50;44.25;;;;;18.46;43.05;101481.22;4770407;29;45731;-82
2022/03/28 10:28:34;;;;;;;;;55.00;44.25;;;;;18.55;43.38;101476.09;4770047;29;46478;-83
2022/03/28 10:31:13;;;;;;;;;51.50;42.00;;;;;18.63;42.45;101471.75;4770047;29;45934;-84
2022/03/28 10:33:51;;;;;;;;;51.00;41.25;;;;;18.71;42.46;101463.94;4770236;29;45511;-82
2022/03/28 10:36:24;;;;;;;;;46.50;37.75;;;;;18.80;41.65;101464.91;4770434;29;45693;-84
2022/03/28 10:38:51;;;;;;;;;40.00;35.50;;;;;18.88;41.78;101456.25;4770018;29;45775;-86
2022/03/28 10:41:18;;;;;;;;;45.25;37.25;;;;;18.96;40.89;101445.72;4769918;29;45688;-83
2022/03/28 10:43:44;;;;;;;;;40.75;31.75;;;;;18.99;40.63;101443.66;4769918;29;45804;-82
2022/03/28 10:46:12;;;;;;;;;36.50;32.00;;;;;19.08;40.40;101447.25;4770251;29;45740;-82
2022/03/28 10:48:47;;;;;;;;;36.00;30.75;;;;;19.12;40.07;101441.50;4769305;29;46522;-81
2022/03/28 10:51:15;;;;;;;;;38.00;32.75;;;;;19.22;39.12;101436.16;4769800;29;46053;-80
2022/03/28 10:53:46;;;;;;;;;31.50;29.25;;;;;19.29;39.06;101429.28;4769962;29;45829;-80
2022/03/28 10:56:18;;;;;;;;;37.00;32.00;;;;;19.34;38.56;101426.19;4770102;29;45573;-83
2022/03/28 10:58:50;;;;;;;;;36.00;32.00;;;;;19.41;37.82;101416.66;4769738;29;45765;-81
2022/03/28 11:01:17;;;;;;;;;34.00;29.50;;;;;19.50;37.86;101429.94;4769711;29;46484;-80
2022/03/28 11:04:05;;;;;;;;;38.75;32.25;;;;;19.55;37.45;101417.03;4769865;29;45892;-81
2022/03/28 11:07:03;;;;;;;;;33.50;30.00;;;;;19.67;37.04;101412.38;4753369;29;45964;-78
2022/03/28 11:09:45;;;;;;;;;42.25;33.75;;;;;19.73;36.96;101406.47;4770149;29;47464;-80
2022/03/28 11:12:29;;;;;;;;;37.00;32.25;;;;;19.80;36.94;101404.88;4769628;29;45623;-78
2022/03/28 11:15:00;;;;;;;;;41.50;31.50;;;;;19.86;36.54;101396.31;4769881;29;45678;-81
2022/03/28 11:17:25;;;;;;;;;38.25;32.75;;;;;19.91;36.08;101387.88;4769416;29;45752;-80
2022/03/28 11:19:57;;;;;;;;;38.75;33.00;;;;;19.98;36.54;101394.25;4769442;29;46256;-80
2022/03/28 11:22:45;;;;;;;;;38.00;31.75;;;;;20.04;35.56;101393.66;4769380;29;45999;-78
2022/03/28 11:25:30;;;;;;;;;40.25;32.00;;;;;20.12;35.11;101385.78;4769409;29;45608;-79
2022/03/28 11:28:13;;;;;;;;;29.00;27.00;;;;;20.18;35.00;101379.84;4769179;29;45558;-81
2022/03/28 11:33:38;;;;;;;;;34.75;29.25;;;;;20.36;34.90;101374.53;4768257;29;46136;-79
2022/03/28 11:36:09;;;;;;;;;31.25;26.50;;;;;20.47;33.82;101375.13;4768209;29;45635;-80
2022/03/28 11:38:51;;;;;;;;;37.00;31.00;;;;;20.55;33.29;101376.19;4752035;29;45977;-80
2022/03/28 11:41:19;;;;;;;;;31.50;29.50;;;;;20.63;33.19;101370.91;4767985;29;46718;-81
2022/03/28 11:43:56;;;;;;;;;37.25;30.00;;;;;20.70;33.34;101367.47;4768127;29;46158;-81
2022/03/28 11:49:59;;;;;;;;;26.50;24.25;;;;;20.86;32.35;101364.09;4768029;29;45660;-80
2022/03/28 11:52:28;;;;;;;;;23.25;22.00;;;;;20.92;32.02;101358.97;4751682;29;46642;-81
2022/03/28 11:54:55;;;;;;;;;31.50;24.50;;;;;21.00;32.11;101349.34;4768237;29;46232;-79
2022/03/28 12:00:23;;;;;;;;;24.25;20.75;;;;;21.15;31.33;101343.31;4767445;29;45677;-84
2022/03/28 12:06:11;;;;;;;;;32.75;29.25;;;;;21.25;31.17;101337.84;4767483;29;45698;-83
2022/03/28 12:08:36;;;;;;;;;29.50;26.75;;;;;21.31;30.73;101337.22;4768161;29;45663;-85
2022/03/28 12:11:02;;;;;;;;;30.50;27.75;;;;;21.35;30.67;101331.38;4751352;29;45862;-81
2022/03/28 12:13:27;;;;;;;;;29.50;26.00;;;;;21.43;30.45;101335.09;4751513;29;47303;-82
2022/03/28 12:15:54;;;;;;;;;27.50;25.25;;;;;21.48;30.04;101328.28;4767933;29;45612;-79
2022/03/28 12:21:42;;;;;;;;;28.25;22.50;;;;;21.59;29.05;101330.59;4767954;29;45940;-77
2022/03/28 12:24:08;;;;;;;;;29.50;25.00;;;;;21.65;28.71;101318.47;4767758;29;45568;-78
2022/03/28 12:26:44;;;;;;;;;23.00;22.50;;;;;21.67;28.97;101309.31;4767778;29;46024;-79
2022/03/28 12:29:11;;;;;;;;;20.25;16.75;;;;;21.73;29.18;101310.47;4767710;29;45872;-79
2022/03/28 12:31:40;;;;;;;;;29.50;25.25;;;;;21.83;28.63;101302.31;4767948;29;45958;-79